createdAt,value
2023-02-19T00:00:20.597Z,100014.38
2023-02-19T00:10:23.126Z,100011.41
2023-02-19T00:20:25.723Z,100007.13
2023-02-19T00:30:28.226Z,100032.19
2023-02-19T00:40:31.157Z,100013.72
2023-02-19T00:50:34.829Z,100011.84
2023-02-19T01:00:37.252Z,100023.91
2023-02-19T01:10:39.849Z,100015.03
2023-02-19T01:20:44.613Z,100002.59
2023-02-19T01:30:47.113Z,99995.31
2023-02-19T01:41:00.820Z,99965.50
2023-02-19T01:51:15.067Z,99978.03
2023-02-19T02:01:17.878Z,99979.94
2023-02-19T02:11:21.540Z,99965.78
2023-02-19T02:21:53.520Z,99951.19
2023-02-19T02:32:08.054Z,99940.75
2023-02-19T02:42:28.846Z,99956.59
2023-02-19T02:53:10.912Z,99939.31
2023-02-19T03:03:17.407Z,99933.00
2023-02-19T03:13:54.493Z,99940.81
2023-02-19T03:24:16.351Z,99920.50
2023-02-19T03:34:26.259Z,99942.13
2023-02-19T03:44:40.937Z,99931.78
2023-02-19T03:54:43.821Z,99943.94
2023-02-19T04:04:56.633Z,99937.53
2023-02-19T04:15:10.297Z,99940.19
2023-02-19T04:25:13.096Z,99920.94
2023-02-19T04:35:15.614Z,99926.94
2023-02-19T04:45:18.297Z,99934.09
2023-02-19T04:55:20.912Z,99931.56
2023-02-19T05:05:23.436Z,99927.25
2023-02-19T05:15:26.081Z,99923.97
2023-02-19T05:25:28.853Z,99899.50
2023-02-19T05:35:31.442Z,99916.16
2023-02-19T05:45:35.450Z,99919.09
2023-02-19T05:55:38.080Z,99920.44
2023-02-19T06:05:40.608Z,99920.94
2023-02-19T06:15:43.409Z,99917.59
2023-02-19T06:25:46.096Z,99904.38
2023-02-19T06:35:48.692Z,99897.84
2023-02-19T06:45:51.185Z,99910.19
2023-02-19T06:56:08.529Z,99881.25
2023-02-19T07:06:11.096Z,99906.41
2023-02-19T07:16:14.509Z,99913.13
2023-02-19T07:26:19.173Z,99932.25
2023-02-19T07:36:23.790Z,99922.13
2023-02-19T07:46:27.030Z,99913.59
2023-02-19T07:56:29.536Z,99906.31
2023-02-19T08:06:31.977Z,99911.44
2023-02-19T08:16:43.074Z,99889.19
2023-02-19T08:26:46.062Z,99914.09
2023-02-19T08:36:48.581Z,99882.03
2023-02-19T08:46:51.011Z,99909.63
2023-02-19T08:56:53.484Z,99905.91
2023-02-19T09:06:56.060Z,99900.75
2023-02-19T09:16:58.496Z,99910.66
2023-02-19T09:27:01.505Z,99915.94
2023-02-19T09:37:03.992Z,99909.53
2023-02-19T09:47:15.558Z,99899.50
2023-02-19T09:57:21.374Z,99870.47
2023-02-19T10:07:45.417Z,99876.06
2023-02-19T10:17:48.273Z,99858.28
2023-02-19T10:27:50.833Z,99892.38
2023-02-19T10:37:53.958Z,99854.38
2023-02-19T10:47:57.025Z,99841.38
2023-02-19T10:58:21.847Z,99828.44
2023-02-19T11:08:24.840Z,99842.22
2023-02-19T11:18:31.155Z,99831.66
2023-02-19T11:28:39.678Z,99824.59
2023-02-19T11:38:42.805Z,99800.88
2023-02-19T11:48:59.455Z,99797.31
2023-02-19T11:59:03.104Z,99772.81
2023-02-19T12:09:26.441Z,99783.34
2023-02-19T12:20:06.963Z,99814.38
2023-02-19T12:30:27.033Z,99827.44
2023-02-19T12:40:59.286Z,99847.63
2023-02-19T12:51:10.923Z,99850.13
2023-02-19T13:01:20.958Z,99842.38
2023-02-19T13:11:32.657Z,99812.56
2023-02-19T13:21:56.391Z,99795.97
2023-02-19T13:32:23.411Z,99795.69
2023-02-19T13:42:34.352Z,99780.72
2023-02-19T13:52:39.529Z,99808.03
2023-02-19T14:02:42.327Z,99813.19
2023-02-19T14:12:45.116Z,99821.63
2023-02-19T14:22:47.870Z,99839.16
2023-02-19T14:32:54.518Z,99831.91
2023-02-19T14:43:01.574Z,99838.88
2023-02-19T14:53:07.303Z,99843.50
2023-02-19T15:03:42.368Z,99847.56
2023-02-19T15:14:07.137Z,99864.78
2023-02-19T15:24:13.895Z,99872.25
2023-02-19T15:34:28.404Z,99881.06
2023-02-19T15:44:38.088Z,99901.84
2023-02-19T15:54:55.605Z,99898.84
2023-02-19T16:04:58.614Z,99921.38
2023-02-19T16:15:13.261Z,99935.00
2023-02-19T16:25:28.139Z,99957.63
2023-02-19T16:35:39.939Z,99981.41
2023-02-19T16:45:47.608Z,99977.97
2023-02-19T16:55:51.149Z,99998.63
2023-02-19T17:05:54.258Z,100016.81
2023-02-19T17:15:58.150Z,100046.09
2023-02-19T17:26:00.801Z,100065.22
2023-02-19T17:36:03.625Z,100107.22
2023-02-19T17:46:06.407Z,100113.53
2023-02-19T17:56:10.440Z,100142.34
2023-02-19T18:06:13.677Z,100159.69
2023-02-19T18:16:19.709Z,100201.34
2023-02-19T18:26:22.573Z,100253.94
2023-02-19T18:36:25.369Z,100281.94
2023-02-19T18:46:28.300Z,100286.44
2023-02-19T18:56:31.137Z,100297.34
2023-02-19T19:06:35.873Z,100292.94
2023-02-19T19:16:39.047Z,100317.41
2023-02-19T19:26:46.442Z,100334.56
2023-02-19T19:36:49.563Z,100333.97
2023-02-19T19:46:55.447Z,100346.88
2023-02-19T19:56:58.244Z,100349.28
2023-02-19T20:07:01.843Z,100368.84
2023-02-19T20:17:06.315Z,100386.47
2023-02-19T20:27:09.138Z,100403.19
2023-02-19T20:37:11.985Z,100417.81
2023-02-19T20:47:14.956Z,100427.75
2023-02-19T20:57:17.901Z,100422.34
2023-02-19T21:07:20.865Z,100418.44
2023-02-19T21:17:23.669Z,100414.06
2023-02-19T21:27:26.324Z,100411.31
2023-02-19T21:37:28.947Z,100418.34
2023-02-19T21:47:31.712Z,100432.44
2023-02-19T21:57:34.231Z,100432.97
2023-02-19T22:07:37.444Z,100441.56
2023-02-19T22:17:43.143Z,100449.72
2023-02-19T22:27:45.785Z,100461.16
2023-02-19T22:37:49.673Z,100473.88
2023-02-19T22:47:56.087Z,100496.25
2023-02-19T22:57:58.642Z,100516.56
2023-02-19T23:08:01.224Z,100530.78
2023-02-19T23:18:08.387Z,100562.28
2023-02-19T23:28:11.128Z,100558.81
2023-02-19T23:38:13.736Z,100548.63
2023-02-19T23:48:16.992Z,100590.09
2023-02-19T23:58:19.508Z,100602.59
